• Join FlightAware (Why Join?)
  • Login
  • US Flag 
03:22PM EDT


 

Airport Tracker/Info


-or-


 

Live Flight TrackerFlight Track Log ✈ AAL832 ✈ 17-Jun-2013 ✈ KORD - KMIA

Flight Track Log - Related Links

Times and Time Zones

All times are in EDT time to prevent confusion due to time zone crossing. See the AAL832 flight status page for this flight to view local times or setup timezone preferences in your user account.

Time Position Orientation Groundspeed Altitude Reporting Facility
EDT Latitude Longitude Course Direction KTS MPH feet Rate Location/Type
05:37PM 41.9333 -87.9000 169° South 186 214 2,100  Level Chicago TRACON
05:38PM 41.8667 -87.8833 169° South 248 285 3,500 2,160 Climbing Chicago TRACON
05:39PM 41.8000 -87.8667 169° South 281 323 6,500 2,880 Climbing Chicago TRACON
05:40PM 41.7167 -87.8167 156° South 290 334 9,400 2,640 Climbing Chicago TRACON
05:41PM 41.6597 -87.7597 143° Southeast 306 352 11,900 1,920 Climbing Chicago Center
05:42PM 41.5778 -87.6939 149° Southeast 340 391 13,400 1,620 Climbing Chicago Center
05:43PM 41.4811 -87.6161 149° Southeast 398 458 15,300 2,340 Climbing Chicago Center
05:44PM 41.3489 -87.5594 162° South 416 479 18,300 2,400 Climbing Chicago Center
05:45PM 41.2314 -87.5378 172° South 421 484 20,400 2,040 Climbing Chicago Center
05:46PM 41.1097 -87.5097 170° South 437 503 22,600 1,800 Climbing Chicago Center
05:47PM 40.9872 -87.4756 168° South 446 513 24,200 1,500 Climbing Chicago Center
05:48PM 40.8631 -87.4403 168° South 455 524 25,800 1,320 Climbing Chicago Center
05:49PM 40.7361 -87.4106 170° South 461 531 27,000 540 Climbing Chicago Center
05:50PM 40.5844 -87.3703 169° South 466 536 27,000  Level Chicago Center
05:51PM 40.4569 -87.3356 168° South 468 539 27,000  Level Chicago Center
05:52PM 40.3328 -87.2792 161° South 463 533 27,000 480 Level Chicago Center
05:53PM 40.2103 -87.2183 159° South 469 540 28,000 1,080 Climbing Chicago Center
05:54PM 40.0847 -87.1614 161° South 476 548 29,300 1,320 Climbing Chicago Center
05:55PM 39.9842 -87.1122 159° South 477 549 30,600 900 Climbing Indianapolis Center
05:56PM 39.8489 -87.0003 148° Southeast 484 557 31,000 720 Climbing Indianapolis Center
05:57PM 39.7486 -86.8797 137° Southeast 498 573 32,200 960 Climbing Indianapolis Center
05:58PM 39.6561 -86.7486 132° Southeast 497 572 33,000 360 Climbing Indianapolis Center
05:59PM 39.5636 -86.6211 133° Southeast 494 568 33,000  Level Indianapolis Center
06:00PM 39.4719 -86.4939 133° Southeast 492 566 33,000  Level Indianapolis Center
06:01PM 39.3619 -86.3428 133° Southeast 487 560 33,000  Level Indianapolis Center
06:02PM 39.2706 -86.2150 133° Southeast 488 562 33,000  Level Indianapolis Center
06:03PM 39.1778 -86.0886 133° Southeast 489 563 33,000  Level Indianapolis Center
06:04PM 39.0858 -85.9625 133° Southeast 486 559 33,000 120 Level Indianapolis Center
06:05PM 38.9939 -85.8372 133° Southeast 485 558 33,300 720 Climbing Indianapolis Center
06:06PM 38.8828 -85.6875 134° Southeast 485 558 34,500 780 Climbing Indianapolis Center
06:07PM 38.7906 -85.5625 133° Southeast 485 558 35,000 240 Climbing Indianapolis Center
06:08PM 38.6972 -85.4369 134° Southeast 488 562 35,000  Level Indianapolis Center
06:09PM 38.6022 -85.3083 133° Southeast 485 558 35,000  Level Indianapolis Center
06:10PM 38.5103 -85.1853 134° Southeast 490 564 35,000  Level Indianapolis Center
06:11PM 38.4011 -85.0386 134° Southeast 489 563 35,000  Level Indianapolis Center
06:12PM 38.3067 -84.9144 134° Southeast 487 560 35,000  Level Indianapolis Center
06:13PM 38.2089 -84.7911 135° Southeast 491 565 35,000  Level Indianapolis Center
06:14PM 38.1136 -84.6636 134° Southeast 495 570 35,000  Level Indianapolis Center
06:16PM 38.0169 -84.5350 134° Southeast 501 577 35,000  Level Indianapolis Center
06:17PM 37.9042 -84.4511 150° Southeast 474 545 35,000  Level Indianapolis Center
06:18PM 37.7553 -84.4131 169° South 463 533 35,000  Level Indianapolis Center
06:19PM 37.6300 -84.3756 167° South 462 532 35,000  Level Indianapolis Center
06:20PM 37.5061 -84.3403 167° South 456 525 35,000  Level Indianapolis Center
06:21PM 37.3817 -84.3039 167° South 459 528 35,000  Level Indianapolis Center
06:22PM 37.2561 -84.2700 168° South 460 529 35,000  Level Indianapolis Center
06:23PM 37.1297 -84.2350 168° South 464 534 35,000  Level Indianapolis Center
06:24PM 36.9817 -84.1919 167° South 468 539 35,000  Level Indianapolis Center
06:25PM 36.8550 -84.1575 168° South 466 536 35,000  Level Indianapolis Center
06:26PM 36.7283 -84.1214 167° South 466 536 35,000  Level Indianapolis Center
06:27PM 36.6028 -84.0872 168° South 464 534 35,000  Level Indianapolis Center
06:28PM 36.4819 -84.0514 167° South 464 534 35,000  Level Indianapolis Center
06:29PM 36.3389 -83.9567 152° Southeast 479 551 35,000 120 Level Indianapolis Center
06:30PM 36.2219 -83.8747 151° Southeast 480 552 35,300 600 Climbing Indianapolis Center
06:31PM 36.1058 -83.7928 150° Southeast 478 550 36,300 840 Climbing Indianapolis Center
06:32PM 36.0369 -83.7486 153° Southeast 476 548 36,800 420 Climbing Atlanta Center
06:33PM 35.9200 -83.6669 151° Southeast 481 554 37,000 60 Climbing Atlanta Center
06:34PM 35.8031 -83.5831 150° Southeast 481 554 37,000  Level Atlanta Center
06:35PM 35.6878 -83.5044 151° Southeast 481 554 37,000  Level Atlanta Center
06:36PM 35.5728 -83.4208 149° Southeast 481 554 37,000  Level Atlanta Center
06:37PM 35.4575 -83.3403 150° Southeast 481 554 37,000  Level Atlanta Center
06:38PM 35.3403 -83.2622 151° Southeast 481 554 37,000  Level Atlanta Center
06:39PM 35.2122 -83.1669 149° Southeast 481 554 37,000  Level Atlanta Center
06:40PM 35.1031 -83.0792 147° Southeast 476 548 37,000  Level Atlanta Center
06:41PM 34.9939 -82.9892 146° Southeast 476 548 37,000  Level Atlanta Center
06:42PM 34.8825 -82.8942 145° Southeast 489 563 37,000  Level Atlanta Center
06:43PM 34.7731 -82.8047 146° Southeast 484 557 37,000  Level Atlanta Center
06:44PM 34.6636 -82.7156 146° Southeast 484 557 37,000  Level Atlanta Center
06:45PM 34.5606 -82.6289 145° Southeast 492 566 37,000 360 Level Atlanta Center
06:46PM 34.4444 -82.5375 147° Southeast 477 549 37,800 480 Climbing Atlanta Center
06:47PM 34.3414 -82.4589 148° Southeast 477 549 38,000 60 Climbing Atlanta Center
06:48PM 34.2294 -82.3706 147° Southeast 477 549 38,000  Level Atlanta Center
06:49PM 34.1031 -82.2778 149° Southeast 488 562 38,000  Level Atlanta Center
06:50PM 33.9994 -82.1972 147° Southeast 476 548 38,000  Level Atlanta Center
06:51PM 33.8739 -82.1597 166° South 458 527 38,000  Level Atlanta Center
06:52PM 33.6542 -82.0742 162° South 457 526 38,000  Level Jacksonville Center
06:53PM 33.5369 -82.0081 155° Southeast 468 539 38,000  Level Jacksonville Center
06:54PM 33.4094 -81.9844 171° South 468 539 38,000  Level Jacksonville Center
06:55PM 33.2781 -81.9758 177° South 468 539 38,000  Level Jacksonville Center
06:56PM 33.1486 -81.9769 180° South 468 539 38,000  Level Jacksonville Center
06:57PM 33.0192 -81.9736 179° South 468 539 38,000  Level Jacksonville Center
06:58PM 32.8897 -81.9697 179° South 468 539 38,000  Level Jacksonville Center
06:59PM 32.7622 -81.9589 176° South 468 539 38,000  Level Jacksonville Center
07:00PM 32.6431 -81.9403 173° South 436 502 38,000  Level Jacksonville Center
07:01PM 32.5303 -81.9217 172° South 447 514 38,000  Level Jacksonville Center
07:02PM 32.3944 -81.9036 174° South 452 520 38,000  Level Jacksonville Center
07:03PM 32.2794 -81.8875 173° South 463 533 38,000  Level Jacksonville Center
07:04PM 32.1394 -81.8644 172° South 463 533 38,000  Level Jacksonville Center
07:05PM 32.0158 -81.8292 166° South 463 533 38,000  Level Jacksonville Center
07:06PM 31.9050 -81.8011 168° South 456 525 38,000  Level Jacksonville Center
07:07PM 31.7689 -81.7636 167° South 456 525 38,000  Level Jacksonville Center
07:08PM 31.6581 -81.7356 168° South 456 525 38,000  Level Jacksonville Center
07:09PM 31.5200 -81.6958 166° South 456 525 38,000  Level Jacksonville Center
07:10PM 31.3964 -81.6611 167° South 461 531 38,000  Level Jacksonville Center
07:11PM 31.2814 -81.6383 170° South 466 536 38,000 -60 Level Jacksonville Center
07:12PM 31.1517 -81.6181 172° South 466 536 37,900  Descending Jacksonville Center
07:13PM 31.0219 -81.5956 172° South 466 536 38,000  Climbing Jacksonville Center
07:14PM 30.8944 -81.5756 172° South 466 536 38,000 -60 Level Jacksonville Center
07:15PM 30.7708 -81.5483 169° South 466 536 37,900  Descending Jacksonville Center
07:16PM 30.6472 -81.4994 161° South 466 536 38,000  Climbing Jacksonville Center
07:17PM 30.5256 -81.4553 163° South 466 536 37,900  Descending Jacksonville Center
07:18PM 30.4042 -81.4139 164° South 461 531 38,000  Climbing Jacksonville Center
07:19PM 30.2742 -81.3653 162° South 461 531 37,900  Descending Jacksonville Center
07:20PM 30.1525 -81.3239 162° South 461 531 38,000  Climbing Jacksonville Center
07:21PM 30.1502 -81.3180 162° South  Level FlightAware Approximate
07:21PM 30.0331 -81.2828 163° South 461 531 37,900  Level Jacksonville Center
07:22PM 29.9133 -81.2417 163° South 461 531 37,900  Level Jacksonville Center
07:23PM 29.7939 -81.2006 163° South 456 525 38,000  Climbing Jacksonville Center
07:24PM 29.6744 -81.1572 163° South 456 525 37,900  Descending Jacksonville Center
07:25PM 29.5547 -81.1139 163° South 456 525 38,000  Climbing Jacksonville Center
07:26PM 29.4372 -81.0756 164° South 456 525 37,900  Descending Jacksonville Center
07:27PM 29.3178 -81.0325 163° South 450 518 38,000  Climbing Jacksonville Center
07:30PM 29.0294 -80.9317 163° South 467 537 37,900  Descending Miami Center
07:31PM 28.9097 -80.8894 163° South 467 537 38,000  Climbing Miami Center
07:32PM 28.7878 -80.8469 163° South 459 528 38,000  Level Miami Center
07:33PM 28.6761 -80.8075 163° South 459 528 38,000  Level Miami Center
07:34PM 28.5481 -80.7628 163° South 470 541 38,000  Level Miami Center
07:35PM 28.4075 -80.7131 163° South 475 547 38,000  Level Miami Center
07:36PM 28.2772 -80.6661 162° South 481 554 38,000  Level Miami Center
07:37PM 28.1428 -80.6194 163° South 487 560 38,000  Level Miami Center
07:38PM 28.0147 -80.5750 163° South 487 560 38,000 -180 Level Miami Center
07:39PM 27.8864 -80.5333 164° South 487 560 37,700 -1,500 Descending Miami Center
07:40PM 27.7703 -80.4967 164° South 487 560 35,100 -2,820 Descending Miami Center
07:41PM 27.6419 -80.4528 163° South 487 560 32,100 -3,000 Descending Miami Center
07:42PM 27.5094 -80.4089 164° South 487 560 29,200 -3,000 Descending Miami Center
07:43PM 27.3811 -80.3675 164° South 487 560 26,100 -2,700 Descending Miami Center
07:44PM 27.2528 -80.3214 162° South 487 560 23,900 -1,200 Descending Miami Center
07:45PM 27.1347 -80.2761 161° South 471 542 23,700 -1,200 Descending Miami Center
07:46PM 27.0211 -80.2283 159° South 451 519 21,600 -2,220 Descending Miami Center
07:47PM 26.9094 -80.1808 159° South 438 504 19,300 -2,280 Descending Miami Center
07:48PM 26.8039 -80.1361 159° South 418 481 17,100 -2,100 Descending Miami Center
07:49PM 26.6942 -80.0958 162° South 418 481 15,100 -1,500 Descending Miami Center
07:49PM 26.6358 -80.0825 168° South 393 452 15,000 -1,140 Descending Miami Center
07:50PM 26.5778 -80.0692 168° South 406 467 14,000 -1,740 Descending Miami Center
07:50PM 26.5111 -80.0606 173° South 383 441 12,900 -1,020 Descending Miami Center
07:51PM 26.4842 -80.0528 166° South 384 442 13,000 -600 Climbing Miami Center
07:51PM 26.4111 -80.0439 174° South 341 392 12,300 -1,320 Descending Miami Center
07:52PM 26.3781 -80.0361 168° South 365 420 11,700 -1,800 Descending Miami Center
07:52PM 26.3156 -80.0275 173° South 340 391 10,500 -1,500 Descending Miami Center
07:53PM 26.2967 -80.0222 166° South 348 400 10,200 -480 Descending Miami Center
07:54PM 26.2047 -80.0269 183° South 320 368 9,900 -120 Descending Miami Center
07:55PM 26.1353 -80.0506 197° South 280 322 10,000 -240 Climbing Miami Center
07:56PM 26.0533 -80.0689 191° South 293 337 9,500 -780 Descending Miami Center
07:56PM 26.0050 -80.0839 196° South 288 331 8,700 -1,440 Descending Miami Center
07:57PM 25.9778 -80.0925 196° South 287 330 8,100 -720 Descending Miami Center
07:57PM 25.9433 -80.1331 227° Southwest 271 312 8,000 -240 Descending Miami Center
07:58PM 25.9303 -80.1558 237° Southwest 271 312 7,900 -180 Descending Miami Center
07:59PM 25.9144 -80.2156 254° West 269 310 7,800 -720 Descending Miami Center
07:59PM 25.9225 -80.2319 299° West 246 283 7,200 -1,680 Descending Miami Center
08:00PM 25.9356 -80.2969 283° West 284 327 6,100 -1,140 Descending Miami Center
08:01PM 25.9419 -80.3803 275° West 267 307 5,200 -840 Descending Miami Center
08:02PM 25.9153 -80.4442 245° Southwest 195 224 4,400 -840 Descending Miami Center